TimeCDT,TemperatureF,Dew PointF,Humidity,Sea Level PressureIn,VisibilityMPH,Wind Direction,Wind SpeedMPH,Gust SpeedMPH,PrecipitationIn,Events,Conditions,WindDirDegrees,DateUTC
12:53 AM,81.0,59.0,47,29.92,-9999.0,ENE,5.8,-,N/A,,Unknown,70,2013-07-26 05:53:00
1:53 AM,79.0,60.1,52,29.91,-9999.0,NE,5.8,-,N/A,,Unknown,40,2013-07-26 06:53:00
2:53 AM,79.0,61.0,54,29.90,-9999.0,Calm,Calm,-,N/A,,Unknown,0,2013-07-26 07:53:00
3:53 AM,77.0,62.1,60,29.89,-9999.0,Calm,Calm,-,N/A,,Unknown,0,2013-07-26 08:53:00
4:53 AM,77.0,62.1,60,29.89,-9999.0,NNE,4.6,-,N/A,,Unknown,20,2013-07-26 09:53:00
5:53 AM,77.0,63.0,62,29.90,-9999.0,NNE,6.9,-,N/A,,Unknown,30,2013-07-26 10:53:00
6:53 AM,75.9,63.0,64,29.91,-9999.0,NNE,6.9,-,N/A,,Unknown,20,2013-07-26 11:53:00
7:53 AM,77.0,64.9,66,29.92,-9999.0,Calm,Calm,-,N/A,,Unknown,0,2013-07-26 12:53:00
8:53 AM,81.0,66.0,60,29.93,-9999.0,Calm,Calm,-,N/A,,Unknown,0,2013-07-26 13:53:00
9:53 AM,82.9,66.0,56,29.95,-9999.0,NE,3.5,-,N/A,,Unknown,50,2013-07-26 14:53:00
10:53 AM,86.0,66.0,51,29.95,-9999.0,SSE,4.6,-,N/A,,Unknown,150,2013-07-26 15:53:00
11:53 AM,89.1,64.0,43,29.93,-9999.0,Variable,3.5,-,N/A,,Unknown,0,2013-07-26 16:53:00
12:53 PM,96.1,60.1,30,29.91,-9999.0,Variable,4.6,-,N/A,,Unknown,0,2013-07-26 17:53:00
1:53 PM,100.0,61.0,28,29.88,-9999.0,Variable,5.8,-,N/A,,Unknown,0,2013-07-26 18:53:00
2:53 PM,104.0,59.0,23,29.86,-9999.0,North,9.2,17.3,N/A,,Unknown,360,2013-07-26 19:53:00
3:53 PM,102.0,59.0,24,29.84,-9999.0,East,8.1,17.3,N/A,,Unknown,80,2013-07-26 20:53:00
4:53 PM,93.0,64.0,38,29.88,-9999.0,West,13.8,24.2,N/A,,Unknown,260,2013-07-26 21:53:00
5:20 PM,82.4,66.2,58,30.01,-9999.0,South,16.1,24.2,0.49,,Unknown,180,2013-07-26 22:20:00
5:53 PM,84.9,68.0,57,29.88,-9999.0,West,10.4,-,0.49,,Unknown,280,2013-07-26 22:53:00
6:53 PM,82.0,69.1,65,29.90,-9999.0,North,21.9,36.8,N/A,,Unknown,360,2013-07-26 23:53:00
7:03 PM,80.6,69.8,70,29.99,-9999.0,NNW,19.6,28.8,N/A,,Unknown,340,2013-07-27 00:03:00
7:53 PM,82.0,68.0,62,29.88,-9999.0,NNW,13.8,-,N/A,,Unknown,330,2013-07-27 00:53:00
8:53 PM,84.0,64.9,53,29.86,-9999.0,WNW,8.1,-,N/A,,Unknown,300,2013-07-27 01:53:00
9:53 PM,81.0,68.0,65,29.90,-9999.0,ENE,8.1,-,N/A,,Unknown,60,2013-07-27 02:53:00
10:53 PM,80.1,70.0,71,29.96,-9999.0,NNE,11.5,-,N/A,,Unknown,30,2013-07-27 03:53:00
11:53 PM,81.0,70.0,69,29.95,-9999.0,NNE,10.4,-,N/A,,Unknown,20,2013-07-27 04:53:00